Time;durP1;ratioP1;P1;durP2;ratioP2;P2;SDS_P1;SDS_P2;PMS_P1;PMS_P2;Temp;Humidity;BMP_temperature;BMP_pressure;BME280_temperature;BME280_humidity;BME280_pressure;Samples;Min_cycle;Max_cycle;Signal;HPM_P1;HPM_P2
2022/08/25 00:00:04;;;;;;;1.58;1.48;;;;;;;21.70;42.56;98939.38;5013552;28;20056;-68
2022/08/25 00:02:31;;;;;;;1.10;1.00;;;;;;;21.67;42.64;98934.50;5013896;28;20404;-67
2022/08/25 00:04:59;;;;;;;2.40;1.45;;;;;;;21.62;42.63;98941.75;5012336;28;20387;-67
2022/08/25 00:07:28;;;;;;;1.23;1.13;;;;;;;21.56;43.14;98943.63;5011586;28;20054;-68
2022/08/25 00:09:54;;;;;;;2.00;1.85;;;;;;;21.52;43.11;98942.53;5013276;28;20042;-67
2022/08/25 00:12:21;;;;;;;1.77;1.67;;;;;;;21.46;43.13;98946.22;5013082;28;20062;-68
2022/08/25 00:14:48;;;;;;;2.00;1.77;;;;;;;21.37;43.06;98937.03;5028364;28;20056;-68
2022/08/25 00:17:14;;;;;;;1.88;1.38;;;;;;;21.30;43.35;98939.13;5027960;28;20065;-67
2022/08/25 00:19:41;;;;;;;1.52;1.42;;;;;;;21.24;43.53;98939.09;5012676;28;20482;-67
2022/08/25 00:22:07;;;;;;;1.60;1.50;;;;;;;21.23;43.59;98937.47;5011252;28;20050;-68
2022/08/25 00:24:35;;;;;;;1.60;1.50;;;;;;;21.24;43.65;98939.09;5012800;28;20072;-67
2022/08/25 00:27:02;;;;;;;1.30;1.20;;;;;;;21.23;43.57;98937.47;5011264;28;20049;-68
2022/08/25 00:29:30;;;;;;;1.60;1.40;;;;;;;21.23;43.92;98940.16;5027904;28;20410;-67
2022/08/25 00:31:57;;;;;;;1.08;1.08;;;;;;;21.23;43.80;98933.97;5012698;28;20037;-67
2022/08/25 00:34:28;;;;;;;0.90;0.90;;;;;;;21.23;44.18;98933.97;5012598;28;20418;-67
2022/08/25 00:36:55;;;;;;;1.80;1.70;;;;;;;21.23;43.87;98936.66;5012532;28;20050;-67
2022/08/25 00:39:23;;;;;;;1.75;1.65;;;;;;;21.17;44.03;98933.13;5012731;28;20042;-67
2022/08/25 00:41:52;;;;;;;2.75;1.27;;;;;;;21.11;44.37;98934.16;5011759;28;20038;-67
2022/08/25 00:44:19;;;;;;;1.50;1.40;;;;;;;21.05;44.63;98934.38;5028168;28;20042;-67
2022/08/25 00:46:48;;;;;;;1.00;1.00;;;;;;;21.00;44.55;98940.53;5028404;28;20053;-67
2022/08/25 00:49:29;;;;;;;1.88;1.50;;;;;;;20.98;44.81;98939.94;5011489;28;20042;-67
2022/08/25 00:52:10;;;;;;;1.75;1.60;;;;;;;20.97;44.86;98941.03;5027783;28;20057;-67
2022/08/25 00:54:44;;;;;;;1.73;1.63;;;;;;;20.92;44.51;98936.44;5027731;28;20100;-68
2022/08/25 00:57:15;;;;;;;1.83;1.67;;;;;;;20.90;44.76;98938.56;5027573;28;20420;-68
2022/08/25 00:59:43;;;;;;;2.03;1.92;;;;;;;20.86;45.05;98942.00;5012800;28;20048;-67
2022/08/25 01:02:11;;;;;;;1.92;1.83;;;;;;;20.81;44.98;98948.16;5012770;28;20048;-68
2022/08/25 01:04:40;;;;;;;2.20;2.00;;;;;;;20.77;45.21;98944.34;5012649;28;20042;-68
2022/08/25 01:07:17;;;;;;;2.58;2.10;;;;;;;20.74;45.43;98947.56;5006605;28;20465;-67
2022/08/25 01:09:46;;;;;;;2.00;1.90;;;;;;;20.72;45.00;98952.38;5007774;28;20490;-67
2022/08/25 01:12:13;;;;;;;1.60;1.50;;;;;;;20.72;45.09;98947.00;5007769;28;20042;-68
2022/08/25 01:14:44;;;;;;;1.70;1.60;;;;;;;20.73;45.46;98949.41;4992773;28;20042;-68
2022/08/25 01:17:12;;;;;;;3.17;2.00;;;;;;;20.72;45.09;98955.06;4992960;28;20060;-68
2022/08/25 01:19:39;;;;;;;2.30;2.10;;;;;;;20.66;45.24;98956.91;5008105;28;20394;-67
2022/08/25 01:22:06;;;;;;;2.30;2.10;;;;;;;20.61;45.50;98964.06;5007889;28;20054;-67
2022/08/25 01:24:39;;;;;;;1.80;1.70;;;;;;;20.53;45.81;98958.13;4993250;28;20046;-66
2022/08/25 01:27:07;;;;;;;2.53;2.33;;;;;;;20.47;45.84;98964.47;4992386;28;20057;-67
2022/08/25 01:29:34;;;;;;;2.10;2.00;;;;;;;20.41;45.82;98959.28;4992801;28;20050;-68
2022/08/25 01:32:06;;;;;;;3.03;2.40;;;;;;;20.34;46.12;98956.81;4996454;28;20050;-67
2022/08/25 01:34:35;;;;;;;2.63;2.13;;;;;;;20.29;46.33;98956.75;5016177;28;20046;-67
2022/08/25 01:37:03;;;;;;;1.90;1.80;;;;;;;20.29;46.42;98965.63;5015760;28;20096;-67
2022/08/25 01:39:37;;;;;;;2.20;2.03;;;;;;;20.29;46.32;98965.63;5014688;28;20096;-67
2022/08/25 01:42:12;;;;;;;2.08;1.90;;;;;;;20.29;46.29;98965.63;5016134;28;20046;-67
2022/08/25 01:44:43;;;;;;;1.83;1.73;;;;;;;20.31;46.67;98961.88;5031156;28;20409;-67
2022/08/25 01:47:12;;;;;;;1.75;1.65;;;;;;;20.31;46.49;98962.69;5030816;28;20520;-67
2022/08/25 01:49:38;;;;;;;2.20;2.00;;;;;;;20.29;46.61;98960.25;5015646;28;20038;-67
2022/08/25 01:52:10;;;;;;;2.25;2.13;;;;;;;20.25;46.37;98961.81;5015755;28;20045;-67
2022/08/25 01:54:37;;;;;;;3.88;2.67;;;;;;;20.23;46.99;98965.81;5030976;28;20042;-67
2022/08/25 01:57:04;;;;;;;2.72;1.88;;;;;;;20.21;46.60;98959.91;5015390;28;20513;-68
2022/08/25 01:59:31;;;;;;;2.38;2.20;;;;;;;20.21;46.96;98951.84;5031644;28;20042;-67
2022/08/25 02:01:57;;;;;;;2.58;2.35;;;;;;;20.21;46.66;98970.63;5032063;28;20057;-68
2022/08/25 02:04:30;;;;;;;2.30;2.10;;;;;;;20.19;46.97;98962.81;5016071;28;20056;-68
2022/08/25 02:06:59;;;;;;;2.60;2.40;;;;;;;20.17;46.99;98964.16;5015171;28;20058;-68
2022/08/25 02:09:26;;;;;;;2.10;1.90;;;;;;;20.14;46.96;98965.44;5015495;28;20046;-68
2022/08/25 02:11:52;;;;;;;2.13;2.03;;;;;;;20.10;46.91;98961.66;5015598;28;20291;-68
2022/08/25 02:14:19;;;;;;;2.55;2.35;;;;;;;20.06;46.95;98962.41;5015352;28;20052;-67
2022/08/25 02:16:49;;;;;;;2.40;2.20;;;;;;;20.01;47.42;98960.47;5015169;28;20046;-67
2022/08/25 02:19:18;;;;;;;2.72;1.95;;;;;;;19.97;47.48;98959.34;5014212;28;20453;-68
2022/08/25 02:21:45;;;;;;;2.15;2.00;;;;;;;19.94;47.44;98954.47;5030532;28;20383;-68
2022/08/25 02:24:11;;;;;;;1.95;1.85;;;;;;;19.90;47.60;98950.66;5030579;28;20038;-68
2022/08/25 02:26:39;;;;;;;2.55;2.35;;;;;;;19.84;47.87;98947.13;5014819;28;20038;-68
2022/08/25 02:29:07;;;;;;;2.38;2.17;;;;;;;19.79;47.74;98950.53;5015157;28;20042;-68
2022/08/25 02:31:34;;;;;;;2.00;1.90;;;;;;;19.76;47.82;98947.56;5030590;28;20056;-67
2022/08/25 02:34:02;;;;;;;2.10;2.00;;;;;;;19.74;47.98;98955.81;5014730;28;20045;-67
2022/08/25 02:36:30;;;;;;;2.35;2.13;;;;;;;19.72;48.21;98952.59;5030118;28;20144;-68
2022/08/25 02:38:58;;;;;;;2.42;2.22;;;;;;;19.70;48.04;98945.84;5014971;28;20462;-68
2022/08/25 02:41:26;;;;;;;3.00;2.10;;;;;;;19.68;48.47;98943.44;5014960;28;20041;-68
2022/08/25 02:43:58;;;;;;;3.10;2.50;;;;;;;19.66;48.77;98945.53;5014098;28;20069;-67
2022/08/25 02:46:24;;;;;;;2.30;2.10;;;;;;;19.65;48.71;98948.47;5014492;28;20499;-67
2022/08/25 02:48:52;;;;;;;3.28;2.20;;;;;;;19.62;48.80;98946.28;5014629;28;20041;-67
2022/08/25 02:51:21;;;;;;;2.55;2.35;;;;;;;19.59;48.97;98939.50;5014831;28;20053;-67
2022/08/25 02:53:48;;;;;;;2.00;1.90;;;;;;;19.59;49.23;98946.72;5014778;28;20046;-68
2022/08/25 02:56:17;;;;;;;2.90;2.53;;;;;;;19.58;49.25;98942.44;5014431;28;20037;-67
2022/08/25 02:58:46;;;;;;;1.58;1.48;;;;;;;19.58;49.47;98943.25;5015653;28;20117;-67
2022/08/25 03:01:14;;;;;;;1.55;1.45;;;;;;;19.62;49.68;98933.69;5016762;28;20057;-68
2022/08/25 03:03:43;;;;;;;1.85;1.75;;;;;;;19.64;49.47;98941.50;5016141;28;20049;-67
2022/08/25 03:06:12;;;;;;;1.52;1.42;;;;;;;19.63;49.71;98940.66;5015594;28;20078;-67
2022/08/25 03:08:40;;;;;;;1.55;1.45;;;;;;;19.65;49.43;98938.56;4997235;28;20052;-67
2022/08/25 03:11:07;;;;;;;1.33;1.23;;;;;;;19.67;49.58;98941.78;5029898;28;20430;-68
2022/08/25 03:13:34;;;;;;;1.50;1.40;;;;;;;19.68;49.65;98940.75;5014689;28;20048;-67
2022/08/25 03:16:02;;;;;;;1.52;1.20;;;;;;;19.69;49.49;98947.72;5014330;28;20045;-68
2022/08/25 03:18:30;;;;;;;1.25;1.15;;;;;;;19.68;49.38;98945.31;5014482;28;20129;-68
2022/08/25 03:20:57;;;;;;;1.38;1.27;;;;;;;19.67;49.44;98947.16;5014267;28;20413;-67
2022/08/25 03:23:24;;;;;;;1.45;1.35;;;;;;;19.65;49.49;98941.22;5014910;28;20046;-67
2022/08/25 03:28:40;;;;;;;1.60;1.50;;;;;;;19.48;49.40;98924.34;5014340;28;20045;-67
2022/08/25 03:31:07;;;;;;;1.88;1.77;;;;;;;19.37;49.99;98920.72;5030151;28;20054;-67
2022/08/25 03:33:34;;;;;;;2.17;2.08;;;;;;;19.32;49.95;98912.59;5015537;28;20046;-67
2022/08/25 03:36:01;;;;;;;1.63;1.52;;;;;;;19.27;50.55;98917.91;5022279;28;20409;-67
2022/08/25 03:38:28;;;;;;;1.95;1.70;;;;;;;19.26;50.63;98921.63;5013128;28;20378;-67
2022/08/25 03:40:54;;;;;;;1.90;1.80;;;;;;;19.25;50.32;98914.63;5014297;28;20354;-67
2022/08/25 03:43:21;;;;;;;1.85;1.75;;;;;;;19.23;50.28;98927.50;5014221;28;20046;-67
2022/08/25 03:45:47;;;;;;;1.60;1.50;;;;;;;19.20;50.60;98930.66;5013842;28;20068;-68
2022/08/25 03:48:15;;;;;;;1.80;1.70;;;;;;;19.18;50.75;98930.06;5013787;28;20088;-67
2022/08/25 03:50:50;;;;;;;1.60;1.50;;;;;;;19.17;50.60;98929.25;5028800;28;20038;-67
2022/08/25 03:53:17;;;;;;;2.00;1.90;;;;;;;19.15;50.45;98931.38;5014133;28;20100;-67
2022/08/25 03:55:43;;;;;;;2.00;1.90;;;;;;;19.11;50.82;98924.91;5012642;28;20045;-67
2022/08/25 03:58:11;;;;;;;1.85;1.75;;;;;;;19.05;51.06;98932.03;5012771;28;20050;-67
2022/08/25 04:03:26;;;;;;;1.85;1.75;;;;;;;18.97;51.11;98929.75;4973631;23;20047;-68
2022/08/25 04:05:52;;;;;;;2.35;2.13;;;;;;;18.93;51.40;98935.84;4935607;29;20115;-68
2022/08/25 04:08:21;;;;;;;2.10;1.90;;;;;;;18.87;51.13;98937.66;4918564;29;20063;-68
2022/08/25 04:10:48;;;;;;;2.08;1.92;;;;;;;18.83;51.38;98941.88;4935681;29;20044;-68
2022/08/25 04:13:14;;;;;;;2.30;2.10;;;;;;;18.79;51.75;98938.84;4903040;29;20055;-68
2022/08/25 04:15:42;;;;;;;2.40;2.20;;;;;;;18.74;51.75;98936.09;4918853;29;20056;-68
2022/08/25 04:18:10;;;;;;;2.75;2.30;;;;;;;18.68;52.03;98936.22;4926658;23;20045;-67
2022/08/25 04:20:37;;;;;;;2.80;2.60;;;;;;;18.62;52.03;98940.69;4907276;29;20059;-67
2022/08/25 04:23:03;;;;;;;2.60;2.40;;;;;;;18.59;52.48;98937.66;4882266;29;20089;-67
2022/08/25 04:25:30;;;;;;;2.65;2.45;;;;;;;18.56;52.22;98936.28;4899300;29;20052;-67
2022/08/25 04:27:56;;;;;;;2.30;2.10;;;;;;;18.58;52.96;98936.06;4899425;29;20493;-67
2022/08/25 04:30:23;;;;;;;2.10;2.00;;;;;;;18.60;52.67;98940.09;4882354;29;20404;-67
2022/08/25 04:32:50;;;;;;;2.38;2.17;;;;;;;18.61;52.61;98939.03;4896921;29;20142;-67
2022/08/25 04:35:16;;;;;;;2.47;2.28;;;;;;;18.63;52.82;98942.28;4897650;29;20056;-67
2022/08/25 04:37:43;;;;;;;2.08;1.90;;;;;;;18.66;53.37;98947.19;4881012;29;20080;-67
2022/08/25 04:40:11;;;;;;;4.18;2.40;;;;;;;18.70;52.99;98944.88;4881038;29;20076;-68
2022/08/25 04:42:38;;;;;;;2.45;2.30;;;;;;;18.73;53.25;98947.84;4897619;29;20404;-68
2022/08/25 04:45:05;;;;;;;2.67;2.47;;;;;;;18.74;52.85;98946.00;4897586;29;20070;-68
2022/08/25 04:47:38;;;;;;;2.95;2.60;;;;;;;18.68;52.79;98949.59;4895898;29;20049;-68
2022/08/25 04:50:06;;;;;;;2.50;2.30;;;;;;;18.60;53.18;98947.31;4880797;29;20453;-68
2022/08/25 04:52:33;;;;;;;2.42;2.22;;;;;;;18.58;53.22;98950.25;4882444;29;20049;-68
2022/08/25 04:54:59;;;;;;;2.70;2.50;;;;;;;18.59;53.19;98948.38;4882015;29;20048;-67
2022/08/25 04:57:27;;;;;;;2.70;2.50;;;;;;;18.59;53.04;98943.03;4897649;29;20048;-68
2022/08/25 04:59:54;;;;;;;2.67;2.47;;;;;;;18.54;53.00;98939.19;4897483;29;20076;-68
2022/08/25 05:02:24;;;;;;;3.30;2.85;;;;;;;18.53;53.39;98939.44;4899292;29;20377;-68
2022/08/25 05:04:50;;;;;;;3.10;2.75;;;;;;;18.51;53.54;98934.31;4898123;29;20044;-68
2022/08/25 05:07:17;;;;;;;2.50;2.30;;;;;;;18.54;53.79;98933.84;4897292;29;20045;-68
2022/08/25 05:09:44;;;;;;;2.45;2.25;;;;;;;18.61;53.69;98936.34;4898429;29;20068;-68
2022/08/25 05:12:10;;;;;;;3.08;2.78;;;;;;;18.69;53.42;98933.28;4881457;29;20086;-68
2022/08/25 05:14:38;;;;;;;3.17;2.78;;;;;;;18.73;53.21;98931.78;4897126;29;20442;-68
2022/08/25 05:17:05;;;;;;;2.67;2.45;;;;;;;18.79;53.16;98928.16;4881508;29;20052;-68
2022/08/25 05:19:32;;;;;;;2.10;2.00;;;;;;;18.88;53.53;98941.13;4882282;29;20067;-68
2022/08/25 05:21:59;;;;;;;3.42;3.10;;;;;;;18.98;53.09;98944.81;4882057;29;20044;-66
2022/08/25 05:24:26;;;;;;;3.33;3.03;;;;;;;19.06;52.85;98943.56;4898508;29;20056;-66
2022/08/25 05:26:53;;;;;;;3.63;3.33;;;;;;;19.09;52.91;98934.22;4898366;29;20085;-67
2022/08/25 05:29:20;;;;;;;3.00;2.80;;;;;;;19.13;52.62;98925.44;4881498;29;20040;-66
2022/08/25 05:31:47;;;;;;;3.25;2.92;;;;;;;19.19;52.72;98929.03;4897500;29;20092;-66
2022/08/25 05:34:17;;;;;;;3.00;2.80;;;;;;;19.23;52.45;98922.94;4889024;29;20052;-67
2022/08/25 05:36:44;;;;;;;2.97;2.67;;;;;;;19.26;52.42;98921.63;4898695;29;20449;-67
2022/08/25 05:39:11;;;;;;;3.00;2.70;;;;;;;19.34;52.67;98925.75;4899004;29;20461;-67
2022/08/25 05:41:38;;;;;;;2.75;2.55;;;;;;;19.40;52.34;98919.41;4881815;29;20135;-68
2022/08/25 05:44:05;;;;;;;2.70;2.45;;;;;;;19.46;52.58;98918.41;4881701;29;20493;-67
2022/08/25 05:46:32;;;;;;;2.90;2.70;;;;;;;19.53;52.67;98913.69;4898567;29;20100;-68
2022/08/25 05:48:58;;;;;;;2.90;2.70;;;;;;;19.62;52.52;98916.78;4881779;29;20053;-68
2022/08/25 05:51:25;;;;;;;3.05;2.80;;;;;;;19.69;52.60;98910.19;4901663;29;20051;-68
2022/08/25 05:53:52;;;;;;;3.53;3.17;;;;;;;19.77;51.79;98916.97;4887506;29;20044;-68
2022/08/25 05:56:20;;;;;;;2.72;2.53;;;;;;;19.84;52.10;98914.09;4904911;29;20055;-68
2022/08/25 05:58:47;;;;;;;2.88;2.47;;;;;;;19.92;51.96;98914.50;4904107;29;20066;-68
2022/08/25 06:04:09;;;;;;;2.78;2.58;;;;;;;20.08;51.67;98907.41;4891050;29;20045;-68
2022/08/25 06:06:37;;;;;;;2.70;2.50;;;;;;;20.15;51.86;98910.69;4899693;29;20098;-68
2022/08/25 06:09:05;;;;;;;2.83;2.60;;;;;;;20.19;51.43;98911.00;4881891;29;20049;-68
2022/08/25 06:11:32;;;;;;;3.20;2.90;;;;;;;20.22;51.55;98902.47;4881687;29;20052;-68
2022/08/25 06:13:58;;;;;;;3.47;3.03;;;;;;;20.25;52.04;98899.28;4897841;29;20048;-68
2022/08/25 06:16:25;;;;;;;3.55;3.25;;;;;;;20.29;52.28;98900.41;4865464;29;20052;-68
2022/08/25 06:18:52;;;;;;;2.97;2.78;;;;;;;20.32;51.83;98897.19;4898971;29;20488;-68
2022/08/25 06:21:19;;;;;;;2.85;2.65;;;;;;;20.40;52.58;98899.41;4883444;29;20055;-68
2022/08/25 06:23:45;;;;;;;2.85;2.63;;;;;;;20.51;52.53;98895.78;4900493;29;20553;-68
2022/08/25 06:26:12;;;;;;;4.30;3.90;;;;;;;20.63;52.37;98892.13;4899812;29;20461;-67
2022/08/25 06:28:48;;;;;;;4.57;3.60;;;;;;;20.72;52.05;98888.72;4883698;29;20188;-68
2022/08/25 06:31:15;;;;;;;3.50;3.20;;;;;;;20.82;52.03;98884.47;4883545;29;20104;-68
2022/08/25 06:33:43;;;;;;;4.68;3.55;;;;;;;20.92;51.72;98881.88;4899606;29;20044;-68
2022/08/25 06:36:09;;;;;;;3.33;3.00;;;;;;;21.05;51.44;98881.44;4864595;29;20052;-68
2022/08/25 06:38:36;;;;;;;3.42;3.13;;;;;;;21.17;51.85;98879.34;4866600;29;20056;-68
2022/08/25 06:41:04;;;;;;;3.17;2.88;;;;;;;21.30;51.17;98879.97;4881508;29;20100;-68
2022/08/25 06:43:32;;;;;;;3.33;3.03;;;;;;;21.41;51.10;98871.72;4864562;29;20057;-68
2022/08/25 06:46:11;;;;;;;3.22;2.90;;;;;;;21.53;50.54;98876.88;4881639;29;20516;-68
2022/08/25 06:48:38;;;;;;;4.28;3.60;;;;;;;21.67;50.45;98869.13;4864637;29;20458;-66
2022/08/25 06:51:09;;;;;;;3.80;3.50;;;;;;;21.81;50.33;98864.09;4881781;29;20045;-66
2022/08/25 06:53:40;;;;;;;4.70;3.78;;;;;;;21.92;49.93;98858.47;4865491;29;20113;-67
2022/08/25 06:56:08;;;;;;;3.60;3.30;;;;;;;22.00;49.57;98862.50;4864947;29;20156;-67
2022/08/25 06:58:34;;;;;;;3.65;2.80;;;;;;;22.09;49.85;98857.44;4864702;29;20109;-67
2022/08/25 07:01:10;;;;;;;3.03;2.72;;;;;;;22.18;49.33;98855.88;4864064;29;20545;-67
2022/08/25 07:03:45;;;;;;;2.88;2.58;;;;;;;22.31;49.35;98854.53;4881199;29;20048;-67
2022/08/25 07:06:13;;;;;;;3.60;3.17;;;;;;;22.42;49.04;98854.28;4899160;29;20053;-67
2022/08/25 07:08:42;;;;;;;3.03;2.72;;;;;;;22.55;48.92;98850.25;4899430;29;20516;-67
2022/08/25 07:11:10;;;;;;;4.70;2.78;;;;;;;22.66;48.97;98856.44;4898399;29;20044;-67
2022/08/25 07:13:42;;;;;;;3.33;2.78;;;;;;;22.77;48.65;98862.63;4883304;29;20078;-67
2022/08/25 07:16:10;;;;;;;2.95;2.75;;;;;;;22.86;48.58;98863.69;4883123;29;20037;-67
2022/08/25 07:18:37;;;;;;;2.92;2.72;;;;;;;22.99;48.75;98860.47;4882747;29;20050;-67
2022/08/25 07:21:04;;;;;;;2.95;2.67;;;;;;;23.14;48.42;98863.13;4883345;29;20041;-67
2022/08/25 07:23:34;;;;;;;4.88;2.90;;;;;;;23.27;48.37;98871.72;4882921;29;20531;-67
2022/08/25 07:26:13;;;;;;;3.28;2.97;;;;;;;23.40;48.09;98868.47;4899025;29;20470;-67
2022/08/25 07:29:00;;;;;;;3.28;3.08;;;;;;;23.51;47.81;98864.63;4885234;29;20049;-65
2022/08/25 07:31:28;;;;;;;2.63;2.42;;;;;;;23.63;47.66;98867.03;4898822;29;20400;-65
2022/08/25 07:36:42;;;;;;;3.17;2.88;;;;;;;23.88;47.73;98872.34;4881697;29;20494;-65
2022/08/25 07:39:08;;;;;;;3.38;3.08;;;;;;;24.01;47.23;98868.22;4866817;29;20480;-65
2022/08/25 07:41:38;;;;;;;2.92;2.72;;;;;;;24.11;47.30;98860.06;4866635;29;20394;-65
2022/08/25 07:44:06;;;;;;;3.22;2.92;;;;;;;24.20;47.13;98861.06;4898840;29;20040;-67
2022/08/25 07:46:32;;;;;;;3.97;2.78;;;;;;;24.32;46.91;98860.72;4882109;29;20059;-66
2022/08/25 07:48:59;;;;;;;3.33;3.03;;;;;;;24.45;46.71;98865.53;4899088;29;20044;-66
2022/08/25 07:51:26;;;;;;;3.30;2.65;;;;;;;24.59;46.67;98871.09;4898618;29;20447;-66
2022/08/25 07:53:53;;;;;;;2.40;2.20;;;;;;;24.71;46.47;98862.63;4866512;29;20049;-66
2022/08/25 07:56:19;;;;;;;3.28;2.97;;;;;;;24.81;46.31;98862.50;4881303;29;20059;-67
2022/08/25 07:58:46;;;;;;;2.95;2.75;;;;;;;24.91;46.29;98865.13;4899198;29;20050;-67
2022/08/25 08:01:16;;;;;;;3.90;3.10;;;;;;;24.98;46.08;98867.50;4898403;29;20405;-66
2022/08/25 08:03:44;;;;;;;3.75;2.85;;;;;;;25.03;45.91;98867.47;4874218;29;20086;-66
2022/08/25 08:06:21;;;;;;;3.10;2.90;;;;;;;25.12;46.00;98864.97;4881429;29;20064;-67
2022/08/25 08:08:50;;;;;;;3.80;3.50;;;;;;;25.22;46.32;98875.66;4898399;29;20063;-67
2022/08/25 08:11:29;;;;;;;3.42;3.13;;;;;;;25.35;46.22;98868.75;4897054;29;20044;-67
2022/08/25 08:13:56;;;;;;;;;;;;;;;25.43;45.88;98876.25;4881686;29;20624;-67
2022/08/25 08:16:26;;;;;;;3.10;2.90;;;;;;;25.57;45.75;98873.66;4897802;29;20410;-67
2022/08/25 08:18:53;;;;;;;2.95;2.75;;;;;;;25.70;45.80;98875.66;4881465;29;20121;-67
2022/08/25 08:21:25;;;;;;;3.80;3.50;;;;;;;25.87;45.79;98861.66;4881614;29;20077;-67
2022/08/25 08:23:54;;;;;;;4.13;3.72;;;;;;;26.03;45.47;98868.47;4881003;29;20090;-67
2022/08/25 08:26:26;;;;;;;3.80;3.47;;;;;;;26.17;44.74;98857.75;4897268;29;20524;-67
2022/08/25 08:29:15;;;;;;;2.80;2.60;;;;;;;26.28;44.86;98861.88;4896586;29;20052;-67
2022/08/25 08:31:41;;;;;;;3.17;2.90;;;;;;;26.40;44.52;98856.00;4897307;29;20087;-67
2022/08/25 08:34:15;;;;;;;3.45;3.13;;;;;;;26.52;44.36;98844.75;4873972;29;20461;-67
2022/08/25 08:36:42;;;;;;;3.20;2.90;;;;;;;26.57;43.78;98848.16;4897048;29;20059;-67
2022/08/25 08:39:10;;;;;;;3.30;2.75;;;;;;;26.68;43.67;98849.63;4881014;29;20124;-67
2022/08/25 08:44:43;;;;;;;4.95;4.47;;;;;;;26.83;42.98;98850.47;4897317;29;20056;-67
2022/08/25 08:47:28;;;;;;;3.85;3.55;;;;;;;26.89;42.70;98850.06;4864644;29;20062;-67
2022/08/25 08:50:29;;;;;;;3.25;3.05;;;;;;;26.99;42.61;98848.28;4880435;29;20524;-67
2022/08/25 08:53:09;;;;;;;3.38;2.80;;;;;;;27.09;42.30;98845.38;4881104;29;20048;-67
2022/08/25 08:55:43;;;;;;;2.88;2.67;;;;;;;27.20;42.26;98833.25;4895904;29;20135;-67
2022/08/25 08:58:29;;;;;;;2.92;2.63;;;;;;;27.26;41.59;98832.03;4896876;29;20049;-67
2022/08/25 09:00:58;;;;;;;2.83;2.63;;;;;;;27.39;41.42;98842.13;4896072;29;20167;-67
2022/08/25 09:03:43;;;;;;;2.92;2.72;;;;;;;27.49;41.01;98832.16;4880585;29;20051;-67
2022/08/25 09:06:16;;;;;;;3.03;2.75;;;;;;;27.55;41.00;98831.72;4846289;29;20402;-67
2022/08/25 09:08:43;;;;;;;3.40;3.10;;;;;;;27.51;40.20;98817.16;4862156;29;20041;-65
2022/08/25 09:11:29;;;;;;;3.78;2.85;;;;;;;27.53;39.55;98816.88;4861750;29;20478;-65
2022/08/25 09:13:56;;;;;;;2.85;2.53;;;;;;;27.64;39.95;98812.84;4862126;29;20061;-65
2022/08/25 09:19:24;;;;;;;3.92;3.05;;;;;;;27.80;38.40;98808.69;4878483;29;20059;-65
2022/08/25 09:22:00;;;;;;;2.80;2.60;;;;;;;27.87;38.57;98808.25;4861874;29;20154;-66
2022/08/25 09:24:36;;;;;;;2.97;2.72;;;;;;;27.94;38.64;98802.41;4878712;29;20100;-66
2022/08/25 09:27:13;;;;;;;2.70;2.50;;;;;;;28.05;38.60;98801.88;4876806;29;20140;-65
2022/08/25 09:30:00;;;;;;;3.20;2.90;;;;;;;27.97;38.65;98810.75;4861396;29;20117;-66
2022/08/25 09:32:35;;;;;;;3.00;2.80;;;;;;;28.03;38.07;98812.22;4868467;29;20100;-65
2022/08/25 09:35:04;;;;;;;2.75;2.53;;;;;;;27.96;38.19;98809.13;4887956;29;20505;-66
2022/08/25 09:37:31;;;;;;;2.60;2.38;;;;;;;27.99;38.08;98803.09;4896497;29;20049;-66
2022/08/25 09:39:58;;;;;;;3.03;2.78;;;;;;;28.05;38.02;98801.06;4865581;29;20147;-66
2022/08/25 09:42:45;;;;;;;2.88;2.67;;;;;;;28.15;38.00;98800.81;4898456;29;20489;-65
2022/08/25 09:45:16;;;;;;;4.05;2.97;;;;;;;28.32;37.94;98800.94;4881043;29;20053;-66
2022/08/25 09:47:44;;;;;;;3.28;2.95;;;;;;;28.29;37.35;98801.59;4879452;29;20147;-66
2022/08/25 09:50:18;;;;;;;3.00;2.70;;;;;;;28.28;37.11;98801.88;4896888;29;20055;-66
2022/08/25 09:52:45;;;;;;;2.30;2.10;;;;;;;28.43;37.39;98800.72;4896665;29;20048;-65
2022/08/25 09:55:28;;;;;;;3.63;3.20;;;;;;;28.62;37.42;98798.63;4900597;29;20079;-66
2022/08/25 09:57:58;;;;;;;3.78;3.38;;;;;;;28.68;37.61;98791.91;4900842;29;20036;-66
2022/08/25 10:00:32;;;;;;;3.00;2.80;;;;;;;28.62;37.19;98785.03;4886843;29;20060;-65
2022/08/25 10:03:22;;;;;;;2.90;2.70;;;;;;;28.47;37.75;98786.22;4909805;29;20425;-66
2022/08/25 10:06:10;;;;;;;2.45;2.25;;;;;;;28.46;37.56;98770.22;4905079;29;20072;-66
2022/08/25 10:08:42;;;;;;;2.92;2.72;;;;;;;28.39;37.39;98779.59;4891145;29;20057;-66
2022/08/25 10:11:27;;;;;;;3.22;2.83;;;;;;;28.32;37.44;98775.69;4907095;29;20512;-66
2022/08/25 10:14:15;;;;;;;3.00;2.80;;;;;;;28.29;37.56;98779.84;4889142;29;20056;-66
2022/08/25 10:16:43;;;;;;;2.83;2.63;;;;;;;28.29;37.70;98770.84;4914806;23;20049;31
2022/08/25 10:19:23;;;;;;;2.20;2.00;;;;;;;28.36;37.55;98777.50;4895399;29;20385;-69
2022/08/25 10:22:20;;;;;;;2.50;2.30;;;;;;;28.47;36.92;98769.88;4901568;29;20381;-69
2022/08/25 10:24:47;;;;;;;3.15;2.85;;;;;;;28.49;37.09;98764.13;4917324;29;20051;-68
2022/08/25 10:28:02;;;;;;;3.05;2.85;;;;;;;28.56;36.66;98762.56;4918102;29;20052;-68
2022/08/25 10:30:52;;;;;;;2.85;2.65;;;;;;;28.72;36.55;98770.34;4900894;29;20099;-68
2022/08/25 10:33:50;;;;;;;3.00;2.60;;;;;;;28.79;36.45;98759.81;4909387;29;20514;-68
2022/08/25 10:36:22;;;;;;;2.83;2.63;;;;;;;28.90;36.60;98755.69;4899403;29;20048;-68
2022/08/25 10:38:59;;;;;;;3.10;2.90;;;;;;;29.01;36.37;98751.59;4899552;29;20072;-68
2022/08/25 10:41:47;;;;;;;3.70;3.40;;;;;;;29.04;35.87;98750.19;4898223;29;20280;-68
2022/08/25 10:47:38;;;;;;;4.05;2.47;;;;;;;29.28;35.97;98738.88;4898849;29;20564;-68
2022/08/25 10:50:26;;;;;;;2.83;2.42;;;;;;;29.34;34.58;98743.81;4898196;29;20155;-68
2022/08/25 10:53:13;;;;;;;4.80;2.22;;;;;;;29.39;35.01;98731.97;4899246;29;20052;-68
2022/08/25 10:56:20;;;;;;;3.00;2.80;;;;;;;29.40;34.73;98743.69;4899287;29;20060;-68
2022/08/25 10:59:21;;;;;;;3.70;3.35;;;;;;;29.22;34.98;98731.97;4897851;29;20061;-68
2022/08/25 11:02:05;;;;;;;3.10;2.55;;;;;;;29.16;35.31;98722.34;4899408;29;20492;-68
2022/08/25 11:04:36;;;;;;;2.75;2.45;;;;;;;29.22;35.06;98715.63;4928284;29;20555;-68
2022/08/25 11:07:09;;;;;;;2.90;2.70;;;;;;;29.20;35.21;98709.72;4919739;29;20047;-68
2022/08/25 11:09:38;;;;;;;;;;;;;;;29.24;34.61;98716.94;4937296;29;20500;-69
2022/08/25 11:12:28;;;;;;;2.70;2.50;;;;;;;29.49;34.16;98707.19;4937236;29;20378;-69
2022/08/25 11:15:00;;;;;;;2.47;2.28;;;;;;;29.76;34.57;98695.19;4937331;29;20125;-68
2022/08/25 11:17:47;;;;;;;2.90;2.70;;;;;;;29.98;33.64;98699.66;4935390;29;20048;-68
2022/08/25 11:20:22;;;;;;;2.50;2.30;;;;;;;30.07;33.35;98705.09;4937384;29;20567;-69
2022/08/25 11:22:58;;;;;;;2.45;2.28;;;;;;;29.98;33.67;98696.94;4936583;29;20471;-68
2022/08/25 11:25:36;;;;;;;2.90;2.70;;;;;;;29.89;33.80;98695.34;4936910;29;20099;-68
2022/08/25 11:28:18;;;;;;;2.58;2.38;;;;;;;29.95;33.91;98688.59;4936357;29;20066;-68
2022/08/25 11:30:51;;;;;;;2.50;2.30;;;;;;;29.96;33.83;98685.53;4936349;29;20095;-68
2022/08/25 11:33:18;;;;;;;2.70;2.50;;;;;;;29.88;33.18;98678.19;4931970;29;20044;-69
2022/08/25 11:35:53;;;;;;;2.58;2.38;;;;;;;29.91;33.28;98684.91;4932156;29;20055;-69
2022/08/25 11:38:38;;;;;;;2.97;2.70;;;;;;;29.93;32.84;98680.75;4918875;29;20048;-69
2022/08/25 11:41:31;;;;;;;2.60;2.40;;;;;;;29.99;32.63;98675.94;4936272;29;20044;-67
2022/08/25 11:44:26;;;;;;;4.35;2.60;;;;;;;30.05;32.52;98680.09;4915881;29;20062;-68
2022/08/25 11:46:59;;;;;;;2.70;2.50;;;;;;;30.05;32.54;98677.38;4935854;29;20059;-67
2022/08/25 11:49:37;;;;;;;2.72;2.53;;;;;;;30.22;32.31;98679.28;4936016;29;20047;-67
2022/08/25 11:52:26;;;;;;;2.65;2.45;;;;;;;30.29;32.23;98677.66;4936124;29;20040;-67
2022/08/25 11:55:04;;;;;;;2.58;2.10;;;;;;;30.39;31.90;98670.25;4936005;29;20067;-67
2022/08/25 11:57:31;;;;;;;2.85;2.47;;;;;;;30.50;32.15;98657.84;4935853;29;20055;-67
2022/08/25 12:00:14;;;;;;;2.45;2.20;;;;;;;30.62;31.68;98655.22;4935906;29;20504;-67
2022/08/25 12:02:47;;;;;;;2.78;2.58;;;;;;;30.68;31.55;98655.81;4935715;29;20054;-67
2022/08/25 12:05:23;;;;;;;3.20;2.92;;;;;;;30.63;31.52;98656.03;4920361;29;20059;-68
2022/08/25 12:10:58;;;;;;;2.95;2.38;;;;;;;30.73;31.37;98652.94;4935685;29;20126;-68
2022/08/25 12:13:43;;;;;;;2.60;2.40;;;;;;;30.77;31.07;98648.41;4935522;29;20039;-68
2022/08/25 12:16:41;;;;;;;2.35;2.25;;;;;;;30.93;31.75;98640.47;4934771;29;20415;-68